sensor_id;sensor_type;location;lat;lon;timestamp;P1;P2;P0
72509;PMS5003;60532;56.114;40.350;2022-09-06T00:00:26;4.50;4.50;2.00
72509;PMS5003;60532;56.114;40.350;2022-09-06T00:02:30;5.00;5.00;1.75
72509;PMS5003;60532;56.114;40.350;2022-09-06T00:04:32;4.60;4.20;2.00
72509;PMS5003;60532;56.114;40.350;2022-09-06T00:06:32;7.00;3.00;2.00
72509;PMS5003;60532;56.114;40.350;2022-09-06T00:08:33;3.00;2.75;1.75
72509;PMS5003;60532;56.114;40.350;2022-09-06T00:10:33;9.00;5.50;1.00
72509;PMS5003;60532;56.114;40.350;2022-09-06T00:12:34;5.75;5.00;2.00
72509;PMS5003;60532;56.114;40.350;2022-09-06T00:14:34;5.75;4.00;1.75
72509;PMS5003;60532;56.114;40.350;2022-09-06T00:16:35;6.50;5.25;2.00
72509;PMS5003;60532;56.114;40.350;2022-09-06T00:18:35;8.50;6.00;3.00
72509;PMS5003;60532;56.114;40.350;2022-09-06T00:20:36;5.40;5.40;3.00
72509;PMS5003;60532;56.114;40.350;2022-09-06T00:22:40;4.80;4.80;2.00
72509;PMS5003;60532;56.114;40.350;2022-09-06T00:24:40;5.75;3.00;2.00
72509;PMS5003;60532;56.114;40.350;2022-09-06T00:26:41;6.00;6.00;3.00
72509;PMS5003;60532;56.114;40.350;2022-09-06T00:28:41;6.00;5.00;2.25
72509;PMS5003;60532;56.114;40.350;2022-09-06T00:30:42;6.50;6.50;3.00
72509;PMS5003;60532;56.114;40.350;2022-09-06T00:32:42;5.75;4.50;1.00
72509;PMS5003;60532;56.114;40.350;2022-09-06T00:34:43;8.00;6.00;2.25
72509;PMS5003;60532;56.114;40.350;2022-09-06T00:36:43;5.25;5.00;3.00
72509;PMS5003;60532;56.114;40.350;2022-09-06T00:38:44;5.00;5.00;2.00
72509;PMS5003;60532;56.114;40.350;2022-09-06T00:40:44;8.40;5.60;2.00
72509;PMS5003;60532;56.114;40.350;2022-09-06T00:42:45;3.75;3.50;2.00
72509;PMS5003;60532;56.114;40.350;2022-09-06T00:44:45;6.25;5.00;2.00
72509;PMS5003;60532;56.114;40.350;2022-09-06T00:46:47;8.40;6.00;1.20
72509;PMS5003;60532;56.114;40.350;2022-09-06T00:48:50;4.00;2.00;1.00
72509;PMS5003;60532;56.114;40.350;2022-09-06T00:50:52;2.00;2.00;1.00
72509;PMS5003;60532;56.114;40.350;2022-09-06T00:52:53;3.00;3.00;2.00
72509;PMS5003;60532;56.114;40.350;2022-09-06T00:54:54;2.75;2.75;1.00
72509;PMS5003;60532;56.114;40.350;2022-09-06T00:56:54;5.25;2.25;1.00
72509;PMS5003;60532;56.114;40.350;2022-09-06T00:58:58;5.20;2.00;1.00
72509;PMS5003;60532;56.114;40.350;2022-09-06T01:00:59;7.00;5.00;2.00
72509;PMS5003;60532;56.114;40.350;2022-09-06T01:03:00;4.00;3.00;1.00
72509;PMS5003;60532;56.114;40.350;2022-09-06T01:05:00;2.50;2.00;1.00
72509;PMS5003;60532;56.114;40.350;2022-09-06T01:15:57;2.40;2.40;1.00
72509;PMS5003;60532;56.114;40.350;2022-09-06T01:28:55;2.40;2.40;1.00
72509;PMS5003;60532;56.114;40.350;2022-09-06T01:30:59;6.00;3.80;1.40
72509;PMS5003;60532;56.114;40.350;2022-09-06T01:33:06;2.80;2.80;1.00
72509;PMS5003;60532;56.114;40.350;2022-09-06T01:35:27;2.60;2.60;1.00
72509;PMS5003;60532;56.114;40.350;2022-09-06T01:37:33;1.20;1.00;0.20
72509;PMS5003;60532;56.114;40.350;2022-09-06T01:39:34;2.25;1.75;1.00
72509;PMS5003;60532;56.114;40.350;2022-09-06T01:41:35;1.60;1.60;1.00
72509;PMS5003;60532;56.114;40.350;2022-09-06T01:43:35;2.00;2.00;1.00
72509;PMS5003;60532;56.114;40.350;2022-09-06T01:51:56;2.00;2.00;1.00
72509;PMS5003;60532;56.114;40.350;2022-09-06T02:01:05;3.00;3.00;0.40
72509;PMS5003;60532;56.114;40.350;2022-09-06T02:05:33;3.00;2.00;1.00
72509;PMS5003;60532;56.114;40.350;2022-09-06T02:07:31;2.00;1.00;1.00
72509;PMS5003;60532;56.114;40.350;2022-09-06T02:09:34;3.80;3.80;1.40
72509;PMS5003;60532;56.114;40.350;2022-09-06T02:11:39;3.80;1.80;1.00
72509;PMS5003;60532;56.114;40.350;2022-09-06T02:13:52;1.00;1.00;0.00
72509;PMS5003;60532;56.114;40.350;2022-09-06T02:15:55;2.00;2.00;0.60
72509;PMS5003;60532;56.114;40.350;2022-09-06T02:18:19;2.40;2.40;1.00
72509;PMS5003;60532;56.114;40.350;2022-09-06T02:20:19;3.00;3.00;1.00
72509;PMS5003;60532;56.114;40.350;2022-09-06T02:22:22;1.00;1.00;0.00
72509;PMS5003;60532;56.114;40.350;2022-09-06T02:24:26;4.00;2.00;1.00
72509;PMS5003;60532;56.114;40.350;2022-09-06T02:26:29;3.40;2.00;1.00
72509;PMS5003;60532;56.114;40.350;2022-09-06T02:28:31;2.00;2.00;1.00
72509;PMS5003;60532;56.114;40.350;2022-09-06T02:30:33;2.00;2.00;1.00
72509;PMS5003;60532;56.114;40.350;2022-09-06T02:32:40;1.60;1.60;1.00
72509;PMS5003;60532;56.114;40.350;2022-09-06T02:34:42;2.20;2.00;1.00
72509;PMS5003;60532;56.114;40.350;2022-09-06T02:36:45;3.40;2.00;0.20
72509;PMS5003;60532;56.114;40.350;2022-09-06T02:38:46;5.00;2.00;1.00
72509;PMS5003;60532;56.114;40.350;2022-09-06T02:40:46;2.00;1.00;1.00
72509;PMS5003;60532;56.114;40.350;2022-09-06T02:42:48;2.00;2.00;1.80
72509;PMS5003;60532;56.114;40.350;2022-09-06T02:44:48;3.50;3.50;2.00
72509;PMS5003;60532;56.114;40.350;2022-09-06T02:46:49;5.00;2.75;1.00
72509;PMS5003;60532;56.114;40.350;2022-09-06T02:48:49;4.00;2.75;1.00
72509;PMS5003;60532;56.114;40.350;2022-09-06T02:50:50;3.80;2.00;1.00
72509;PMS5003;60532;56.114;40.350;2022-09-06T02:53:07;3.75;2.75;1.00
72509;PMS5003;60532;56.114;40.350;2022-09-06T02:55:08;5.00;5.00;1.80
72509;PMS5003;60532;56.114;40.350;2022-09-06T02:57:10;3.20;2.20;1.00
72509;PMS5003;60532;56.114;40.350;2022-09-06T02:59:10;6.25;6.25;2.00
72509;PMS5003;60532;56.114;40.350;2022-09-06T03:01:11;4.00;4.00;2.00
72509;PMS5003;60532;56.114;40.350;2022-09-06T03:03:11;7.00;4.00;2.00
72509;PMS5003;60532;56.114;40.350;2022-09-06T03:05:12;5.00;5.00;1.75
72509;PMS5003;60532;56.114;40.350;2022-09-06T03:07:12;6.50;5.00;1.75
72509;PMS5003;60532;56.114;40.350;2022-09-06T03:09:13;5.00;5.00;2.00
72509;PMS5003;60532;56.114;40.350;2022-09-06T03:11:13;6.00;6.00;3.00
72509;PMS5003;60532;56.114;40.350;2022-09-06T03:13:14;7.00;5.75;2.75
72509;PMS5003;60532;56.114;40.350;2022-09-06T03:15:15;7.00;6.50;2.75
72509;PMS5003;60532;56.114;40.350;2022-09-06T03:17:15;7.75;6.00;3.00
72509;PMS5003;60532;56.114;40.350;2022-09-06T03:19:16;6.00;5.25;4.00
72509;PMS5003;60532;56.114;40.350;2022-09-06T03:21:17;8.50;6.75;3.00
72509;PMS5003;60532;56.114;40.350;2022-09-06T03:23:17;8.00;8.00;3.50
72509;PMS5003;60532;56.114;40.350;2022-09-06T03:25:18;7.00;6.00;2.60
72509;PMS5003;60532;56.114;40.350;2022-09-06T03:27:19;11.00;7.50;3.50
72509;PMS5003;60532;56.114;40.350;2022-09-06T03:29:19;5.25;5.25;3.00
72509;PMS5003;60532;56.114;40.350;2022-09-06T03:31:19;7.50;7.50;3.00
72509;PMS5003;60532;56.114;40.350;2022-09-06T03:33:20;5.25;5.25;3.00
72509;PMS5003;60532;56.114;40.350;2022-09-06T03:35:20;6.75;6.75;3.00
72509;PMS5003;60532;56.114;40.350;2022-09-06T03:37:21;6.75;5.00;2.00
72509;PMS5003;60532;56.114;40.350;2022-09-06T03:39:21;8.75;6.25;3.00
72509;PMS5003;60532;56.114;40.350;2022-09-06T03:41:22;5.50;5.50;4.50
72509;PMS5003;60532;56.114;40.350;2022-09-06T03:43:22;6.50;6.50;3.00
72509;PMS5003;60532;56.114;40.350;2022-09-06T03:45:23;6.00;6.00;3.00
72509;PMS5003;60532;56.114;40.350;2022-09-06T03:47:24;9.00;7.00;4.50
72509;PMS5003;60532;56.114;40.350;2022-09-06T03:49:24;9.00;6.50;5.00
72509;PMS5003;60532;56.114;40.350;2022-09-06T03:51:24;8.25;8.25;5.50
72509;PMS5003;60532;56.114;40.350;2022-09-06T03:53:26;7.50;6.25;5.00
72509;PMS5003;60532;56.114;40.350;2022-09-06T03:55:26;6.60;5.60;3.00
72509;PMS5003;60532;56.114;40.350;2022-09-06T03:57:27;7.50;7.00;3.00
72509;PMS5003;60532;56.114;40.350;2022-09-06T03:59:27;7.00;7.00;3.00
72509;PMS5003;60532;56.114;40.350;2022-09-06T04:01:28;7.00;6.00;2.50
72509;PMS5003;60532;56.114;40.350;2022-09-06T04:03:29;7.50;6.75;3.00
72509;PMS5003;60532;56.114;40.350;2022-09-06T04:05:29;6.25;5.75;3.00
72509;PMS5003;60532;56.114;40.350;2022-09-06T04:07:30;6.00;5.00;2.00
72509;PMS5003;60532;56.114;40.350;2022-09-06T04:09:30;8.25;6.25;3.00
72509;PMS5003;60532;56.114;40.350;2022-09-06T04:11:31;6.00;6.00;3.00
72509;PMS5003;60532;56.114;40.350;2022-09-06T04:13:32;6.75;5.50;4.00
72509;PMS5003;60532;56.114;40.350;2022-09-06T04:15:33;6.20;6.20;3.80
72509;PMS5003;60532;56.114;40.350;2022-09-06T04:17:33;2.00;2.00;1.00
72509;PMS5003;60532;56.114;40.350;2022-09-06T04:19:33;6.25;5.00;2.00
72509;PMS5003;60532;56.114;40.350;2022-09-06T04:21:34;2.50;2.50;2.00
72509;PMS5003;60532;56.114;40.350;2022-09-06T04:23:34;6.25;6.25;4.00
72509;PMS5003;60532;56.114;40.350;2022-09-06T04:25:35;6.00;6.00;2.50
72509;PMS5003;60532;56.114;40.350;2022-09-06T04:27:36;6.00;6.00;3.00
72509;PMS5003;60532;56.114;40.350;2022-09-06T04:29:36;5.25;5.25;3.00
72509;PMS5003;60532;56.114;40.350;2022-09-06T04:31:36;4.50;4.50;2.25
72509;PMS5003;60532;56.114;40.350;2022-09-06T04:33:37;4.50;4.50;2.00
72509;PMS5003;60532;56.114;40.350;2022-09-06T04:35:39;5.40;5.40;2.00
72509;PMS5003;60532;56.114;40.350;2022-09-06T04:37:39;4.00;4.00;2.50
72509;PMS5003;60532;56.114;40.350;2022-09-06T04:39:40;6.00;5.00;3.00
72509;PMS5003;60532;56.114;40.350;2022-09-06T04:41:40;3.50;3.50;2.00
72509;PMS5003;60532;56.114;40.350;2022-09-06T04:43:41;6.00;6.00;4.20
72509;PMS5003;60532;56.114;40.350;2022-09-06T04:45:42;5.00;5.00;3.00
72509;PMS5003;60532;56.114;40.350;2022-09-06T04:47:43;5.40;5.40;3.00
72509;PMS5003;60532;56.114;40.350;2022-09-06T04:49:44;5.75;5.75;3.00
72509;PMS5003;60532;56.114;40.350;2022-09-06T04:51:44;5.75;5.00;2.00
72509;PMS5003;60532;56.114;40.350;2022-09-06T04:53:44;6.25;6.25;4.00
72509;PMS5003;60532;56.114;40.350;2022-09-06T04:55:45;5.00;5.00;2.75
72509;PMS5003;60532;56.114;40.350;2022-09-06T04:57:45;7.00;7.00;3.00
72509;PMS5003;60532;56.114;40.350;2022-09-06T04:59:46;7.50;6.00;3.00
72509;PMS5003;60532;56.114;40.350;2022-09-06T05:01:46;11.50;7.00;3.50
72509;PMS5003;60532;56.114;40.350;2022-09-06T05:03:47;10.00;10.00;5.00
72509;PMS5003;60532;56.114;40.350;2022-09-06T05:05:48;10.25;7.00;3.50
72509;PMS5003;60532;56.114;40.350;2022-09-06T05:07:51;6.50;6.50;3.50
72509;PMS5003;60532;56.114;40.350;2022-09-06T05:09:52;6.20;5.80;3.40
72509;PMS5003;60532;56.114;40.350;2022-09-06T05:11:52;6.50;6.50;4.00
72509;PMS5003;60532;56.114;40.350;2022-09-06T05:13:53;10.25;7.75;5.00
72509;PMS5003;60532;56.114;40.350;2022-09-06T05:15:54;7.75;4.00;2.00
72509;PMS5003;60532;56.114;40.350;2022-09-06T05:18:00;4.00;4.00;3.00
72509;PMS5003;60532;56.114;40.350;2022-09-06T05:20:00;7.20;7.20;4.20
72509;PMS5003;60532;56.114;40.350;2022-09-06T05:22:01;7.50;7.50;6.00
72509;PMS5003;60532;56.114;40.350;2022-09-06T05:24:01;9.50;7.50;4.00
72509;PMS5003;60532;56.114;40.350;2022-09-06T05:26:02;7.00;7.00;3.75
72509;PMS5003;60532;56.114;40.350;2022-09-06T05:28:02;8.75;6.00;4.00
72509;PMS5003;60532;56.114;40.350;2022-09-06T05:30:03;8.75;7.50;4.00
72509;PMS5003;60532;56.114;40.350;2022-09-06T05:32:03;6.50;6.00;3.75
72509;PMS5003;60532;56.114;40.350;2022-09-06T05:34:04;9.75;8.50;4.50
72509;PMS5003;60532;56.114;40.350;2022-09-06T05:36:04;8.50;8.00;4.00
72509;PMS5003;60532;56.114;40.350;2022-09-06T05:38:05;8.00;8.00;4.00
72509;PMS5003;60532;56.114;40.350;2022-09-06T05:40:06;8.75;8.75;6.00
72509;PMS5003;60532;56.114;40.350;2022-09-06T05:42:06;9.00;8.00;4.00
72509;PMS5003;60532;56.114;40.350;2022-09-06T05:44:07;7.00;7.00;4.00
72509;PMS5003;60532;56.114;40.350;2022-09-06T05:46:08;9.50;8.50;4.00
72509;PMS5003;60532;56.114;40.350;2022-09-06T05:48:08;8.25;7.50;5.50
72509;PMS5003;60532;56.114;40.350;2022-09-06T05:50:08;4.50;4.50;2.75
72509;PMS5003;60532;56.114;40.350;2022-09-06T05:52:09;6.50;6.50;3.00
72509;PMS5003;60532;56.114;40.350;2022-09-06T05:54:09;7.50;7.25;6.00
72509;PMS5003;60532;56.114;40.350;2022-09-06T05:56:11;9.25;9.25;6.50
72509;PMS5003;60532;56.114;40.350;2022-09-06T05:58:11;8.60;8.60;4.80
72509;PMS5003;60532;56.114;40.350;2022-09-06T06:00:12;10.75;9.25;5.00
72509;PMS5003;60532;56.114;40.350;2022-09-06T06:02:12;6.50;5.00;4.00
72509;PMS5003;60532;56.114;40.350;2022-09-06T06:04:13;7.00;7.00;5.00
72509;PMS5003;60532;56.114;40.350;2022-09-06T06:06:13;9.00;8.00;5.75
72509;PMS5003;60532;56.114;40.350;2022-09-06T06:08:14;6.50;6.50;4.25
72509;PMS5003;60532;56.114;40.350;2022-09-06T06:10:14;7.50;6.50;4.25
72509;PMS5003;60532;56.114;40.350;2022-09-06T06:12:15;5.50;5.50;4.75
72509;PMS5003;60532;56.114;40.350;2022-09-06T06:14:15;6.25;6.25;5.00
72509;PMS5003;60532;56.114;40.350;2022-09-06T06:16:16;6.75;6.00;4.75
72509;PMS5003;60532;56.114;40.350;2022-09-06T06:18:17;8.60;7.00;4.80
72509;PMS5003;60532;56.114;40.350;2022-09-06T06:20:17;8.25;7.00;5.00
72509;PMS5003;60532;56.114;40.350;2022-09-06T06:22:18;4.75;4.75;3.25
72509;PMS5003;60532;56.114;40.350;2022-09-06T06:24:18;8.75;7.50;5.00
72509;PMS5003;60532;56.114;40.350;2022-09-06T06:26:19;6.00;5.50;3.50
72509;PMS5003;60532;56.114;40.350;2022-09-06T06:28:19;6.00;6.00;4.00
72509;PMS5003;60532;56.114;40.350;2022-09-06T06:30:20;11.75;7.50;4.00
72509;PMS5003;60532;56.114;40.350;2022-09-06T06:32:20;5.25;4.50;2.00
72509;PMS5003;60532;56.114;40.350;2022-09-06T06:34:21;6.25;6.25;3.50
72509;PMS5003;60532;56.114;40.350;2022-09-06T06:36:22;7.50;7.50;4.25
72509;PMS5003;60532;56.114;40.350;2022-09-06T06:38:22;8.40;8.20;4.20
72509;PMS5003;60532;56.114;40.350;2022-09-06T06:40:23;6.50;6.50;4.00
72509;PMS5003;60532;56.114;40.350;2022-09-06T06:42:23;8.00;7.75;3.50
72509;PMS5003;60532;56.114;40.350;2022-09-06T06:44:24;8.50;7.00;4.00
72509;PMS5003;60532;56.114;40.350;2022-09-06T06:46:33;10.80;8.60;5.00
72509;PMS5003;60532;56.114;40.350;2022-09-06T06:48:35;7.80;7.60;4.00
72509;PMS5003;60532;56.114;40.350;2022-09-06T06:50:35;10.80;9.00;4.20
72509;PMS5003;60532;56.114;40.350;2022-09-06T06:52:36;8.00;8.00;5.00
72509;PMS5003;60532;56.114;40.350;2022-09-06T06:54:36;12.75;12.00;7.00
72509;PMS5003;60532;56.114;40.350;2022-09-06T06:56:37;10.25;9.75;4.00
72509;PMS5003;60532;56.114;40.350;2022-09-06T06:58:40;16.60;9.60;7.00
72509;PMS5003;60532;56.114;40.350;2022-09-06T07:00:40;12.50;12.25;6.00
72509;PMS5003;60532;56.114;40.350;2022-09-06T07:02:41;10.00;10.00;6.50
72509;PMS5003;60532;56.114;40.350;2022-09-06T07:04:41;12.25;12.25;6.25
72509;PMS5003;60532;56.114;40.350;2022-09-06T07:06:49;12.50;12.50;6.00
72509;PMS5003;60532;56.114;40.350;2022-09-06T07:08:50;15.00;9.40;6.20
72509;PMS5003;60532;56.114;40.350;2022-09-06T07:10:50;13.50;12.25;7.75
72509;PMS5003;60532;56.114;40.350;2022-09-06T07:12:50;11.50;9.50;6.00
72509;PMS5003;60532;56.114;40.350;2022-09-06T07:14:51;13.00;11.75;7.00
72509;PMS5003;60532;56.114;40.350;2022-09-06T07:16:51;13.00;13.00;7.75
72509;PMS5003;60532;56.114;40.350;2022-09-06T07:18:57;11.80;11.00;5.20
72509;PMS5003;60532;56.114;40.350;2022-09-06T07:20:57;12.75;12.00;6.00
72509;PMS5003;60532;56.114;40.350;2022-09-06T07:22:58;10.00;9.00;6.50
72509;PMS5003;60532;56.114;40.350;2022-09-06T07:24:59;9.80;9.80;6.60
72509;PMS5003;60532;56.114;40.350;2022-09-06T07:26:59;12.50;12.00;6.25
72509;PMS5003;60532;56.114;40.350;2022-09-06T07:29:01;12.00;9.25;4.00
72509;PMS5003;60532;56.114;40.350;2022-09-06T07:31:01;8.40;8.40;4.20
72509;PMS5003;60532;56.114;40.350;2022-09-06T07:33:02;11.00;8.25;4.50
72509;PMS5003;60532;56.114;40.350;2022-09-06T07:35:04;8.20;8.20;4.60
72509;PMS5003;60532;56.114;40.350;2022-09-06T07:37:05;8.50;8.50;4.00
72509;PMS5003;60532;56.114;40.350;2022-09-06T07:39:05;7.00;7.00;3.00
72509;PMS5003;60532;56.114;40.350;2022-09-06T07:41:06;8.75;7.25;3.25
72509;PMS5003;60532;56.114;40.350;2022-09-06T07:43:07;9.20;8.20;3.20
72509;PMS5003;60532;56.114;40.350;2022-09-06T07:45:08;6.75;6.00;3.00
72509;PMS5003;60532;56.114;40.350;2022-09-06T07:47:08;8.00;5.50;2.00
72509;PMS5003;60532;56.114;40.350;2022-09-06T07:49:09;6.75;6.75;3.00
72509;PMS5003;60532;56.114;40.350;2022-09-06T07:51:10;6.00;6.00;3.50
72509;PMS5003;60532;56.114;40.350;2022-09-06T07:53:11;6.60;6.20;2.80
72509;PMS5003;60532;56.114;40.350;2022-09-06T07:55:12;6.75;5.75;2.75
72509;PMS5003;60532;56.114;40.350;2022-09-06T07:57:12;7.25;7.25;3.00
72509;PMS5003;60532;56.114;40.350;2022-09-06T07:59:13;7.75;7.75;3.00
72509;PMS5003;60532;56.114;40.350;2022-09-06T08:03:33;9.80;5.40;2.80
72509;PMS5003;60532;56.114;40.350;2022-09-06T08:05:33;9.00;9.00;4.00
72509;PMS5003;60532;56.114;40.350;2022-09-06T08:07:34;6.50;6.50;2.75
72509;PMS5003;60532;56.114;40.350;2022-09-06T08:09:34;9.75;6.75;2.75
72509;PMS5003;60532;56.114;40.350;2022-09-06T08:11:36;7.00;6.80;3.00
72509;PMS5003;60532;56.114;40.350;2022-09-06T08:13:37;8.20;7.00;4.00
72509;PMS5003;60532;56.114;40.350;2022-09-06T08:15:37;6.80;6.80;4.00
72509;PMS5003;60532;56.114;40.350;2022-09-06T08:17:38;5.50;5.50;2.00
72509;PMS5003;60532;56.114;40.350;2022-09-06T08:19:38;8.25;7.25;3.00
72509;PMS5003;60532;56.114;40.350;2022-09-06T08:21:39;6.25;3.25;1.00
72509;PMS5003;60532;56.114;40.350;2022-09-06T08:23:40;6.00;6.00;3.00
72509;PMS5003;60532;56.114;40.350;2022-09-06T08:25:43;10.20;5.60;2.40
72509;PMS5003;60532;56.114;40.350;2022-09-06T08:27:44;4.50;3.25;1.25
72509;PMS5003;60532;56.114;40.350;2022-09-06T08:29:44;10.25;6.50;2.25
72509;PMS5003;60532;56.114;40.350;2022-09-06T08:31:45;6.00;6.00;3.00
72509;PMS5003;60532;56.114;40.350;2022-09-06T08:33:45;4.80;4.80;3.00
72509;PMS5003;60532;56.114;40.350;2022-09-06T08:35:53;8.40;6.80;3.40
72509;PMS5003;60532;56.114;40.350;2022-09-06T08:37:56;7.60;5.20;2.20
72509;PMS5003;60532;56.114;40.350;2022-09-06T08:39:56;8.20;7.00;3.20
72509;PMS5003;60532;56.114;40.350;2022-09-06T08:41:59;8.25;7.75;4.00
72509;PMS5003;60532;56.114;40.350;2022-09-06T08:44:11;7.00;6.00;2.80
72509;PMS5003;60532;56.114;40.350;2022-09-06T08:46:12;9.00;7.00;3.00
72509;PMS5003;60532;56.114;40.350;2022-09-06T08:48:14;7.80;6.60;3.00
72509;PMS5003;60532;56.114;40.350;2022-09-06T08:50:15;7.25;6.75;3.00
72509;PMS5003;60532;56.114;40.350;2022-09-06T08:54:36;6.80;6.80;3.00
72509;PMS5003;60532;56.114;40.350;2022-09-06T08:56:41;8.20;6.80;4.00
72509;PMS5003;60532;56.114;40.350;2022-09-06T08:59:04;8.00;7.60;4.00
72509;PMS5003;60532;56.114;40.350;2022-09-06T09:01:17;9.80;6.80;3.20
72509;PMS5003;60532;56.114;40.350;2022-09-06T09:03:22;8.00;7.00;3.00
72509;PMS5003;60532;56.114;40.350;2022-09-06T09:05:25;7.40;7.40;3.20
72509;PMS5003;60532;56.114;40.350;2022-09-06T09:07:31;8.40;6.00;3.00
72509;PMS5003;60532;56.114;40.350;2022-09-06T09:09:33;9.20;7.40;4.00
72509;PMS5003;60532;56.114;40.350;2022-09-06T09:11:34;5.20;5.20;2.20
72509;PMS5003;60532;56.114;40.350;2022-09-06T09:13:46;6.60;5.60;2.00
72509;PMS5003;60532;56.114;40.350;2022-09-06T09:15:50;5.80;5.80;2.00
72509;PMS5003;60532;56.114;40.350;2022-09-06T09:17:50;7.00;7.00;3.00
72509;PMS5003;60532;56.114;40.350;2022-09-06T09:19:52;9.40;7.80;2.20
72509;PMS5003;60532;56.114;40.350;2022-09-06T09:21:52;4.50;4.50;2.50
72509;PMS5003;60532;56.114;40.350;2022-09-06T09:23:53;6.50;6.50;2.25
72509;PMS5003;60532;56.114;40.350;2022-09-06T09:25:54;7.20;7.20;3.60
72509;PMS5003;60532;56.114;40.350;2022-09-06T09:27:58;7.80;7.20;3.60
72509;PMS5003;60532;56.114;40.350;2022-09-06T09:30:00;10.25;8.00;3.00
72509;PMS5003;60532;56.114;40.350;2022-09-06T09:32:01;6.60;4.40;2.80
72509;PMS5003;60532;56.114;40.350;2022-09-06T09:34:02;8.60;6.60;3.00
72509;PMS5003;60532;56.114;40.350;2022-09-06T09:36:05;3.20;3.20;1.80
72509;PMS5003;60532;56.114;40.350;2022-09-06T09:38:10;6.40;6.00;3.00
72509;PMS5003;60532;56.114;40.350;2022-09-06T09:42:28;7.00;7.00;2.40
72509;PMS5003;60532;56.114;40.350;2022-09-06T09:44:30;5.20;4.80;2.60
72509;PMS5003;60532;56.114;40.350;2022-09-06T09:46:31;7.00;7.00;3.00
72509;PMS5003;60532;56.114;40.350;2022-09-06T09:48:32;6.80;4.40;2.00
72509;PMS5003;60532;56.114;40.350;2022-09-06T09:50:33;6.00;6.00;2.50
72509;PMS5003;60532;56.114;40.350;2022-09-06T09:52:34;6.40;6.40;3.00
72509;PMS5003;60532;56.114;40.350;2022-09-06T09:54:43;6.00;6.00;3.00
72509;PMS5003;60532;56.114;40.350;2022-09-06T09:56:46;6.20;4.00;2.00
72509;PMS5003;60532;56.114;40.350;2022-09-06T09:58:48;14.00;7.80;3.00
72509;PMS5003;60532;56.114;40.350;2022-09-06T10:00:48;8.50;7.00;3.00
72509;PMS5003;60532;56.114;40.350;2022-09-06T10:03:11;12.20;10.20;5.60
72509;PMS5003;60532;56.114;40.350;2022-09-06T10:07:16;15.00;7.25;3.75
72509;PMS5003;60532;56.114;40.350;2022-09-06T10:09:20;8.20;6.60;3.00
72509;PMS5003;60532;56.114;40.350;2022-09-06T10:11:37;11.40;6.00;2.80
72509;PMS5003;60532;56.114;40.350;2022-09-06T10:13:38;9.00;7.20;3.80
72509;PMS5003;60532;56.114;40.350;2022-09-06T10:15:41;8.40;6.60;4.00
72509;PMS5003;60532;56.114;40.350;2022-09-06T10:19:42;6.75;6.75;4.00
72509;PMS5003;60532;56.114;40.350;2022-09-06T10:21:44;7.80;7.00;3.20
72509;PMS5003;60532;56.114;40.350;2022-09-06T10:26:04;11.60;7.20;2.40
72509;PMS5003;60532;56.114;40.350;2022-09-06T10:30:18;13.20;10.20;4.40
72509;PMS5003;60532;56.114;40.350;2022-09-06T10:43:11;7.40;7.40;3.00
72509;PMS5003;60532;56.114;40.350;2022-09-06T10:47:18;4.00;1.00;0.40
72509;PMS5003;60532;56.114;40.350;2022-09-06T10:49:19;4.50;3.50;1.50
72509;PMS5003;60532;56.114;40.350;2022-09-06T10:51:27;6.80;5.60;2.60
72509;PMS5003;60532;56.114;40.350;2022-09-06T10:56:12;7.00;3.40;2.00
72509;PMS5003;60532;56.114;40.350;2022-09-06T10:58:11;4.80;4.80;2.00
72509;PMS5003;60532;56.114;40.350;2022-09-06T11:00:12;10.50;5.00;2.25
72509;PMS5003;60532;56.114;40.350;2022-09-06T11:04:36;8.80;6.00;2.80
72509;PMS5003;60532;56.114;40.350;2022-09-06T11:06:42;5.60;5.60;2.00
72509;PMS5003;60532;56.114;40.350;2022-09-06T11:10:43;8.25;7.25;3.00
72509;PMS5003;60532;56.114;40.350;2022-09-06T11:14:47;10.25;7.50;3.00
72509;PMS5003;60532;56.114;40.350;2022-09-06T11:16:50;8.25;7.50;3.75
72509;PMS5003;60532;56.114;40.350;2022-09-06T11:18:57;9.20;7.80;3.00
72509;PMS5003;60532;56.114;40.350;2022-09-06T11:21:15;12.80;8.40;3.40
72509;PMS5003;60532;56.114;40.350;2022-09-06T11:27:40;13.00;10.00;6.20
72509;PMS5003;60532;56.114;40.350;2022-09-06T11:29:44;15.60;12.60;6.00
72509;PMS5003;60532;56.114;40.350;2022-09-06T11:31:50;15.60;11.40;6.00
72509;PMS5003;60532;56.114;40.350;2022-09-06T11:40:22;20.00;13.25;6.00
72509;PMS5003;60532;56.114;40.350;2022-09-06T11:51:04;11.40;9.00;6.00
72509;PMS5003;60532;56.114;40.350;2022-09-06T11:55:08;26.50;14.25;6.25
72509;PMS5003;60532;56.114;40.350;2022-09-06T11:57:11;7.20;6.20;3.00
72509;PMS5003;60532;56.114;40.350;2022-09-06T12:04:05;9.40;7.00;3.00
72509;PMS5003;60532;56.114;40.350;2022-09-06T12:12:38;7.80;5.40;2.00
72509;PMS5003;60532;56.114;40.350;2022-09-06T12:14:40;4.60;3.40;2.00
72509;PMS5003;60532;56.114;40.350;2022-09-06T12:18:57;3.80;3.00;1.60
72509;PMS5003;60532;56.114;40.350;2022-09-06T12:21:01;3.00;3.00;2.00
72509;PMS5003;60532;56.114;40.350;2022-09-06T12:23:02;2.60;2.20;1.00
72509;PMS5003;60532;56.114;40.350;2022-09-06T12:25:50;3.50;3.50;1.00
72509;PMS5003;60532;56.114;40.350;2022-09-06T12:27:24;8.20;7.00;2.00
72509;PMS5003;60532;56.114;40.350;2022-09-06T12:29:25;4.00;4.00;1.80
72509;PMS5003;60532;56.114;40.350;2022-09-06T12:31:29;7.20;4.80;2.20
72509;PMS5003;60532;56.114;40.350;2022-09-06T12:33:33;6.80;5.20;1.80
72509;PMS5003;60532;56.114;40.350;2022-09-06T12:35:35;6.00;4.00;2.00
72509;PMS5003;60532;56.114;40.350;2022-09-06T12:37:36;8.00;5.50;2.25
72509;PMS5003;60532;56.114;40.350;2022-09-06T12:39:57;8.20;7.00;3.00
72509;PMS5003;60532;56.114;40.350;2022-09-06T12:41:59;6.40;5.60;2.00
72509;PMS5003;60532;56.114;40.350;2022-09-06T12:44:00;7.80;7.80;3.00
72509;PMS5003;60532;56.114;40.350;2022-09-06T12:46:04;9.20;5.60;2.00
72509;PMS5003;60532;56.114;40.350;2022-09-06T12:48:08;6.80;4.80;2.00
72509;PMS5003;60532;56.114;40.350;2022-09-06T12:52:18;10.20;5.40;3.00
72509;PMS5003;60532;56.114;40.350;2022-09-06T12:54:20;5.60;5.20;2.00
72509;PMS5003;60532;56.114;40.350;2022-09-06T12:56:21;7.40;6.00;3.00
72509;PMS5003;60532;56.114;40.350;2022-09-06T12:58:26;8.40;6.60;2.80
72509;PMS5003;60532;56.114;40.350;2022-09-06T13:00:33;6.00;6.00;2.20
72509;PMS5003;60532;56.114;40.350;2022-09-06T13:02:56;6.60;4.80;2.60
72509;PMS5003;60532;56.114;40.350;2022-09-06T13:04:59;7.80;6.80;3.00
72509;PMS5003;60532;56.114;40.350;2022-09-06T13:07:02;5.60;4.00;2.00
72509;PMS5003;60532;56.114;40.350;2022-09-06T13:09:04;6.00;6.00;2.00
72509;PMS5003;60532;56.114;40.350;2022-09-06T13:11:08;8.40;4.80;1.60
72509;PMS5003;60532;56.114;40.350;2022-09-06T13:13:09;6.40;2.80;1.00
72509;PMS5003;60532;56.114;40.350;2022-09-06T13:17:21;4.00;4.00;1.50
72509;PMS5003;60532;56.114;40.350;2022-09-06T13:19:34;5.40;3.40;1.40
72509;PMS5003;60532;56.114;40.350;2022-09-06T13:21:37;5.60;3.00;2.00
72509;PMS5003;60532;56.114;40.350;2022-09-06T13:23:39;1.60;1.60;1.00
72509;PMS5003;60532;56.114;40.350;2022-09-06T13:25:51;6.80;3.60;1.60
72509;PMS5003;60532;56.114;40.350;2022-09-06T13:27:53;5.20;3.20;2.00
72509;PMS5003;60532;56.114;40.350;2022-09-06T13:29:57;4.00;4.00;2.00
72509;PMS5003;60532;56.114;40.350;2022-09-06T13:32:00;6.80;4.80;2.00
72509;PMS5003;60532;56.114;40.350;2022-09-06T13:34:01;6.80;3.80;2.00
72509;PMS5003;60532;56.114;40.350;2022-09-06T13:36:05;9.75;4.50;1.00